sensor_id;sensor_type;location;lat;lon;timestamp;P1;durP1;ratioP1;P2;durP2;ratioP2
66487;SDS011;53304;54.550;18.526;2024-01-07T00:00:12;2.63;;;1.05;;
66487;SDS011;53304;54.550;18.526;2024-01-07T00:02:40;13.57;;;1.40;;
66487;SDS011;53304;54.550;18.526;2024-01-07T00:05:06;1.60;;;1.00;;
66487;SDS011;53304;54.550;18.526;2024-01-07T00:07:31;1.40;;;0.98;;
66487;SDS011;53304;54.550;18.526;2024-01-07T00:09:57;2.13;;;1.20;;
66487;SDS011;53304;54.550;18.526;2024-01-07T00:12:22;1.60;;;1.10;;
66487;SDS011;53304;54.550;18.526;2024-01-07T00:14:49;1.73;;;0.98;;
66487;SDS011;53304;54.550;18.526;2024-01-07T00:17:15;2.45;;;1.10;;
66487;SDS011;53304;54.550;18.526;2024-01-07T00:19:40;1.95;;;1.10;;
66487;SDS011;53304;54.550;18.526;2024-01-07T00:22:06;2.22;;;1.20;;
66487;SDS011;53304;54.550;18.526;2024-01-07T00:24:32;1.23;;;1.00;;
66487;SDS011;53304;54.550;18.526;2024-01-07T00:27:00;2.38;;;1.20;;
66487;SDS011;53304;54.550;18.526;2024-01-07T00:29:25;1.92;;;0.90;;
66487;SDS011;53304;54.550;18.526;2024-01-07T00:31:51;2.85;;;1.25;;
66487;SDS011;53304;54.550;18.526;2024-01-07T00:34:16;2.08;;;1.10;;
66487;SDS011;53304;54.550;18.526;2024-01-07T00:36:41;2.45;;;1.10;;
66487;SDS011;53304;54.550;18.526;2024-01-07T00:39:07;1.55;;;1.20;;
66487;SDS011;53304;54.550;18.526;2024-01-07T00:41:32;2.55;;;1.20;;
66487;SDS011;53304;54.550;18.526;2024-01-07T00:44:02;1.85;;;1.05;;
66487;SDS011;53304;54.550;18.526;2024-01-07T00:46:28;2.38;;;1.20;;
66487;SDS011;53304;54.550;18.526;2024-01-07T00:48:53;2.92;;;1.27;;
66487;SDS011;53304;54.550;18.526;2024-01-07T00:51:19;2.67;;;1.30;;
66487;SDS011;53304;54.550;18.526;2024-01-07T00:53:44;2.28;;;1.13;;
66487;SDS011;53304;54.550;18.526;2024-01-07T00:56:12;1.80;;;1.15;;
66487;SDS011;53304;54.550;18.526;2024-01-07T00:58:38;2.10;;;1.08;;
66487;SDS011;53304;54.550;18.526;2024-01-07T01:01:03;1.85;;;1.15;;
66487;SDS011;53304;54.550;18.526;2024-01-07T01:03:28;2.05;;;1.20;;
66487;SDS011;53304;54.550;18.526;2024-01-07T01:05:54;2.40;;;1.00;;
66487;SDS011;53304;54.550;18.526;2024-01-07T01:08:19;1.73;;;1.20;;
66487;SDS011;53304;54.550;18.526;2024-01-07T01:10:48;2.45;;;1.33;;
66487;SDS011;53304;54.550;18.526;2024-01-07T01:13:13;1.80;;;1.15;;
66487;SDS011;53304;54.550;18.526;2024-01-07T01:15:42;2.78;;;1.40;;
66487;SDS011;53304;54.550;18.526;2024-01-07T01:18:07;2.28;;;1.10;;
66487;SDS011;53304;54.550;18.526;2024-01-07T01:20:32;2.72;;;1.35;;
66487;SDS011;53304;54.550;18.526;2024-01-07T01:22:58;1.75;;;1.20;;
66487;SDS011;53304;54.550;18.526;2024-01-07T01:25:23;2.85;;;1.30;;
66487;SDS011;53304;54.550;18.526;2024-01-07T01:27:49;2.85;;;1.30;;
66487;SDS011;53304;54.550;18.526;2024-01-07T01:30:14;2.30;;;1.30;;
66487;SDS011;53304;54.550;18.526;2024-01-07T01:32:40;2.00;;;1.40;;
66487;SDS011;53304;54.550;18.526;2024-01-07T01:35:07;1.38;;;0.98;;
66487;SDS011;53304;54.550;18.526;2024-01-07T01:37:33;1.85;;;1.20;;
66487;SDS011;53304;54.550;18.526;2024-01-07T01:39:59;2.47;;;1.38;;
66487;SDS011;53304;54.550;18.526;2024-01-07T01:42:24;1.60;;;1.08;;
66487;SDS011;53304;54.550;18.526;2024-01-07T01:44:50;1.70;;;1.10;;
66487;SDS011;53304;54.550;18.526;2024-01-07T01:47:15;1.55;;;1.08;;
66487;SDS011;53304;54.550;18.526;2024-01-07T01:49:41;2.20;;;1.30;;
66487;SDS011;53304;54.550;18.526;2024-01-07T01:52:07;2.63;;;1.20;;
66487;SDS011;53304;54.550;18.526;2024-01-07T01:54:33;2.67;;;1.45;;
66487;SDS011;53304;54.550;18.526;2024-01-07T01:56:59;2.25;;;1.20;;
66487;SDS011;53304;54.550;18.526;2024-01-07T01:59:27;2.13;;;1.30;;
66487;SDS011;53304;54.550;18.526;2024-01-07T02:01:54;2.10;;;1.35;;
66487;SDS011;53304;54.550;18.526;2024-01-07T02:04:22;2.75;;;1.40;;
66487;SDS011;53304;54.550;18.526;2024-01-07T02:06:48;2.30;;;1.20;;
66487;SDS011;53304;54.550;18.526;2024-01-07T02:09:15;2.47;;;1.30;;
66487;SDS011;53304;54.550;18.526;2024-01-07T02:11:43;2.40;;;1.30;;
66487;SDS011;53304;54.550;18.526;2024-01-07T02:14:08;2.88;;;1.30;;
66487;SDS011;53304;54.550;18.526;2024-01-07T02:16:34;2.25;;;1.30;;
66487;SDS011;53304;54.550;18.526;2024-01-07T02:18:59;2.17;;;1.20;;
66487;SDS011;53304;54.550;18.526;2024-01-07T02:21:24;3.40;;;1.25;;
66487;SDS011;53304;54.550;18.526;2024-01-07T02:23:50;2.13;;;1.20;;
66487;SDS011;53304;54.550;18.526;2024-01-07T02:26:15;2.58;;;1.48;;
66487;SDS011;53304;54.550;18.526;2024-01-07T02:28:41;2.95;;;1.10;;
66487;SDS011;53304;54.550;18.526;2024-01-07T02:31:06;2.67;;;1.20;;
66487;SDS011;53304;54.550;18.526;2024-01-07T02:33:32;2.70;;;1.10;;
66487;SDS011;53304;54.550;18.526;2024-01-07T02:35:57;1.90;;;1.25;;
66487;SDS011;53304;54.550;18.526;2024-01-07T02:38:23;1.77;;;0.95;;
66487;SDS011;53304;54.550;18.526;2024-01-07T02:40:48;2.42;;;1.40;;
66487;SDS011;53304;54.550;18.526;2024-01-07T02:43:14;2.22;;;1.15;;
66487;SDS011;53304;54.550;18.526;2024-01-07T02:45:39;2.10;;;1.10;;
66487;SDS011;53304;54.550;18.526;2024-01-07T02:48:04;1.83;;;1.08;;
66487;SDS011;53304;54.550;18.526;2024-01-07T02:50:32;2.15;;;1.27;;
66487;SDS011;53304;54.550;18.526;2024-01-07T02:52:57;2.25;;;1.17;;
66487;SDS011;53304;54.550;18.526;2024-01-07T02:55:23;2.15;;;1.10;;
66487;SDS011;53304;54.550;18.526;2024-01-07T02:57:48;4.88;;;1.00;;
66487;SDS011;53304;54.550;18.526;2024-01-07T03:00:13;3.05;;;1.30;;
66487;SDS011;53304;54.550;18.526;2024-01-07T03:02:39;2.30;;;1.30;;
66487;SDS011;53304;54.550;18.526;2024-01-07T03:05:05;1.55;;;1.05;;
66487;SDS011;53304;54.550;18.526;2024-01-07T03:07:31;4.30;;;1.30;;
66487;SDS011;53304;54.550;18.526;2024-01-07T03:09:56;2.35;;;1.20;;
66487;SDS011;53304;54.550;18.526;2024-01-07T03:12:21;2.50;;;1.42;;
66487;SDS011;53304;54.550;18.526;2024-01-07T03:14:47;1.50;;;1.10;;
66487;SDS011;53304;54.550;18.526;2024-01-07T03:17:14;2.63;;;1.20;;
66487;SDS011;53304;54.550;18.526;2024-01-07T03:19:42;1.65;;;1.00;;
66487;SDS011;53304;54.550;18.526;2024-01-07T03:22:07;2.60;;;1.20;;
66487;SDS011;53304;54.550;18.526;2024-01-07T03:24:33;2.40;;;1.27;;
66487;SDS011;53304;54.550;18.526;2024-01-07T03:26:58;2.33;;;1.20;;
66487;SDS011;53304;54.550;18.526;2024-01-07T03:29:24;2.15;;;1.15;;
66487;SDS011;53304;54.550;18.526;2024-01-07T03:31:49;2.13;;;1.20;;
66487;SDS011;53304;54.550;18.526;2024-01-07T03:34:16;1.95;;;1.25;;
66487;SDS011;53304;54.550;18.526;2024-01-07T03:36:41;2.03;;;1.25;;
66487;SDS011;53304;54.550;18.526;2024-01-07T03:39:06;3.72;;;1.42;;
66487;SDS011;53304;54.550;18.526;2024-01-07T03:41:32;2.88;;;1.40;;
66487;SDS011;53304;54.550;18.526;2024-01-07T03:43:57;2.45;;;1.10;;
66487;SDS011;53304;54.550;18.526;2024-01-07T03:46:25;2.22;;;1.30;;
66487;SDS011;53304;54.550;18.526;2024-01-07T03:48:50;1.90;;;1.30;;
66487;SDS011;53304;54.550;18.526;2024-01-07T03:51:16;2.03;;;1.30;;
66487;SDS011;53304;54.550;18.526;2024-01-07T03:53:41;1.92;;;1.10;;
66487;SDS011;53304;54.550;18.526;2024-01-07T03:56:07;2.08;;;1.20;;
66487;SDS011;53304;54.550;18.526;2024-01-07T03:58:32;2.47;;;1.33;;
66487;SDS011;53304;54.550;18.526;2024-01-07T04:00:58;3.40;;;1.20;;
66487;SDS011;53304;54.550;18.526;2024-01-07T04:03:23;2.75;;;1.38;;
66487;SDS011;53304;54.550;18.526;2024-01-07T04:05:49;3.25;;;1.50;;
66487;SDS011;53304;54.550;18.526;2024-01-07T04:08:14;2.67;;;1.30;;
66487;SDS011;53304;54.550;18.526;2024-01-07T04:10:42;3.10;;;1.25;;
66487;SDS011;53304;54.550;18.526;2024-01-07T04:13:08;1.92;;;1.20;;
66487;SDS011;53304;54.550;18.526;2024-01-07T04:15:33;2.13;;;1.10;;
66487;SDS011;53304;54.550;18.526;2024-01-07T04:18:02;1.83;;;1.02;;
66487;SDS011;53304;54.550;18.526;2024-01-07T04:20:28;2.42;;;1.10;;
66487;SDS011;53304;54.550;18.526;2024-01-07T04:22:54;2.10;;;1.20;;
66487;SDS011;53304;54.550;18.526;2024-01-07T04:25:20;2.10;;;1.23;;
66487;SDS011;53304;54.550;18.526;2024-01-07T04:27:48;1.85;;;1.10;;
66487;SDS011;53304;54.550;18.526;2024-01-07T04:30:13;2.97;;;1.40;;
66487;SDS011;53304;54.550;18.526;2024-01-07T04:32:41;2.60;;;1.40;;
66487;SDS011;53304;54.550;18.526;2024-01-07T04:35:06;3.47;;;1.50;;
66487;SDS011;53304;54.550;18.526;2024-01-07T04:37:32;2.00;;;1.33;;
66487;SDS011;53304;54.550;18.526;2024-01-07T04:39:58;2.00;;;1.30;;
66487;SDS011;53304;54.550;18.526;2024-01-07T04:42:23;2.83;;;1.40;;
66487;SDS011;53304;54.550;18.526;2024-01-07T04:44:49;3.10;;;1.35;;
66487;SDS011;53304;54.550;18.526;2024-01-07T04:49:49;2.15;;;1.25;;
66487;SDS011;53304;54.550;18.526;2024-01-07T04:52:14;2.55;;;1.45;;
66487;SDS011;53304;54.550;18.526;2024-01-07T04:54:39;1.83;;;1.25;;
66487;SDS011;53304;54.550;18.526;2024-01-07T04:57:05;2.25;;;1.20;;
66487;SDS011;53304;54.550;18.526;2024-01-07T04:59:30;4.68;;;1.40;;
66487;SDS011;53304;54.550;18.526;2024-01-07T05:01:55;2.30;;;1.25;;
66487;SDS011;53304;54.550;18.526;2024-01-07T05:04:21;3.13;;;1.30;;
66487;SDS011;53304;54.550;18.526;2024-01-07T05:06:46;1.55;;;1.00;;
66487;SDS011;53304;54.550;18.526;2024-01-07T05:09:12;5.45;;;1.30;;
66487;SDS011;53304;54.550;18.526;2024-01-07T05:11:39;2.85;;;1.30;;
66487;SDS011;53304;54.550;18.526;2024-01-07T05:14:05;1.98;;;1.20;;
66487;SDS011;53304;54.550;18.526;2024-01-07T05:16:30;2.53;;;1.40;;
66487;SDS011;53304;54.550;18.526;2024-01-07T05:18:56;2.85;;;1.30;;
66487;SDS011;53304;54.550;18.526;2024-01-07T05:21:22;4.18;;;1.60;;
66487;SDS011;53304;54.550;18.526;2024-01-07T05:23:47;3.67;;;1.50;;
66487;SDS011;53304;54.550;18.526;2024-01-07T05:26:16;2.72;;;1.38;;
66487;SDS011;53304;54.550;18.526;2024-01-07T05:28:41;1.88;;;1.17;;
66487;SDS011;53304;54.550;18.526;2024-01-07T05:31:16;2.65;;;1.38;;
66487;SDS011;53304;54.550;18.526;2024-01-07T05:33:43;3.40;;;1.50;;
66487;SDS011;53304;54.550;18.526;2024-01-07T05:36:08;3.13;;;1.40;;
66487;SDS011;53304;54.550;18.526;2024-01-07T05:38:34;3.13;;;1.30;;
66487;SDS011;53304;54.550;18.526;2024-01-07T05:40:59;3.03;;;1.33;;
66487;SDS011;53304;54.550;18.526;2024-01-07T05:43:25;3.50;;;1.45;;
66487;SDS011;53304;54.550;18.526;2024-01-07T05:45:50;3.22;;;1.63;;
66487;SDS011;53304;54.550;18.526;2024-01-07T05:48:16;2.45;;;1.30;;
66487;SDS011;53304;54.550;18.526;2024-01-07T05:50:41;2.47;;;1.23;;
66487;SDS011;53304;54.550;18.526;2024-01-07T05:53:09;2.88;;;1.30;;
66487;SDS011;53304;54.550;18.526;2024-01-07T05:55:34;1.95;;;1.25;;
66487;SDS011;53304;54.550;18.526;2024-01-07T05:58:00;2.65;;;1.33;;
66487;SDS011;53304;54.550;18.526;2024-01-07T06:00:25;2.80;;;1.30;;
66487;SDS011;53304;54.550;18.526;2024-01-07T06:02:50;2.72;;;1.50;;
66487;SDS011;53304;54.550;18.526;2024-01-07T06:05:16;2.38;;;1.25;;
66487;SDS011;53304;54.550;18.526;2024-01-07T06:07:41;2.78;;;1.33;;
66487;SDS011;53304;54.550;18.526;2024-01-07T06:10:07;2.65;;;1.20;;
66487;SDS011;53304;54.550;18.526;2024-01-07T06:12:32;1.92;;;1.30;;
66487;SDS011;53304;54.550;18.526;2024-01-07T06:15:00;3.35;;;1.50;;
66487;SDS011;53304;54.550;18.526;2024-01-07T06:17:28;2.35;;;1.40;;
66487;SDS011;53304;54.550;18.526;2024-01-07T06:19:56;2.25;;;1.40;;
66487;SDS011;53304;54.550;18.526;2024-01-07T06:22:22;1.63;;;1.17;;
66487;SDS011;53304;54.550;18.526;2024-01-07T06:24:50;2.22;;;1.38;;
66487;SDS011;53304;54.550;18.526;2024-01-07T06:27:16;2.30;;;1.25;;
66487;SDS011;53304;54.550;18.526;2024-01-07T06:29:41;2.35;;;1.20;;
66487;SDS011;53304;54.550;18.526;2024-01-07T06:32:06;4.15;;;1.63;;
66487;SDS011;53304;54.550;18.526;2024-01-07T06:34:32;2.35;;;1.40;;
66487;SDS011;53304;54.550;18.526;2024-01-07T06:36:58;2.53;;;1.38;;
66487;SDS011;53304;54.550;18.526;2024-01-07T06:39:24;2.35;;;1.23;;
66487;SDS011;53304;54.550;18.526;2024-01-07T06:41:52;2.83;;;1.38;;
66487;SDS011;53304;54.550;18.526;2024-01-07T06:44:17;2.38;;;1.30;;
66487;SDS011;53304;54.550;18.526;2024-01-07T06:46:42;2.97;;;1.45;;
66487;SDS011;53304;54.550;18.526;2024-01-07T06:49:08;2.08;;;1.10;;
66487;SDS011;53304;54.550;18.526;2024-01-07T06:51:34;3.30;;;1.20;;
66487;SDS011;53304;54.550;18.526;2024-01-07T06:53:59;3.88;;;1.38;;
66487;SDS011;53304;54.550;18.526;2024-01-07T06:56:27;2.05;;;1.10;;
66487;SDS011;53304;54.550;18.526;2024-01-07T06:58:55;3.47;;;1.35;;
66487;SDS011;53304;54.550;18.526;2024-01-07T07:01:20;3.25;;;1.33;;
66487;SDS011;53304;54.550;18.526;2024-01-07T07:03:49;4.25;;;1.50;;
66487;SDS011;53304;54.550;18.526;2024-01-07T07:06:15;2.97;;;1.20;;
66487;SDS011;53304;54.550;18.526;2024-01-07T07:08:41;2.63;;;1.40;;
66487;SDS011;53304;54.550;18.526;2024-01-07T07:11:07;6.10;;;1.35;;
66487;SDS011;53304;54.550;18.526;2024-01-07T07:13:32;7.82;;;1.50;;
66487;SDS011;53304;54.550;18.526;2024-01-07T07:15:58;3.65;;;1.58;;
66487;SDS011;53304;54.550;18.526;2024-01-07T07:18:24;4.03;;;1.50;;
66487;SDS011;53304;54.550;18.526;2024-01-07T07:20:50;6.95;;;2.03;;
66487;SDS011;53304;54.550;18.526;2024-01-07T07:23:15;2.25;;;1.25;;
66487;SDS011;53304;54.550;18.526;2024-01-07T07:25:40;5.35;;;1.45;;
66487;SDS011;53304;54.550;18.526;2024-01-07T07:28:06;3.80;;;1.50;;
66487;SDS011;53304;54.550;18.526;2024-01-07T07:30:33;2.88;;;1.30;;
66487;SDS011;53304;54.550;18.526;2024-01-07T07:32:59;7.13;;;1.73;;
66487;SDS011;53304;54.550;18.526;2024-01-07T07:35:24;3.53;;;1.60;;
66487;SDS011;53304;54.550;18.526;2024-01-07T07:37:50;3.45;;;1.63;;
66487;SDS011;53304;54.550;18.526;2024-01-07T07:40:15;2.47;;;1.33;;
66487;SDS011;53304;54.550;18.526;2024-01-07T07:42:40;2.67;;;1.40;;
66487;SDS011;53304;54.550;18.526;2024-01-07T07:45:06;3.95;;;1.60;;
66487;SDS011;53304;54.550;18.526;2024-01-07T07:47:31;2.97;;;1.50;;
66487;SDS011;53304;54.550;18.526;2024-01-07T07:49:57;2.92;;;1.27;;
66487;SDS011;53304;54.550;18.526;2024-01-07T07:52:22;3.00;;;1.60;;
66487;SDS011;53304;54.550;18.526;2024-01-07T07:54:51;3.25;;;1.70;;
66487;SDS011;53304;54.550;18.526;2024-01-07T07:57:16;4.00;;;1.33;;
66487;SDS011;53304;54.550;18.526;2024-01-07T07:59:42;4.45;;;1.60;;
66487;SDS011;53304;54.550;18.526;2024-01-07T08:02:07;3.17;;;1.50;;
66487;SDS011;53304;54.550;18.526;2024-01-07T08:04:33;4.43;;;1.70;;
66487;SDS011;53304;54.550;18.526;2024-01-07T08:06:58;4.53;;;1.55;;
66487;SDS011;53304;54.550;18.526;2024-01-07T08:09:25;9.65;;;1.88;;
66487;SDS011;53304;54.550;18.526;2024-01-07T08:11:51;2.70;;;1.42;;
66487;SDS011;53304;54.550;18.526;2024-01-07T08:14:19;3.58;;;1.75;;
66487;SDS011;53304;54.550;18.526;2024-01-07T08:16:44;3.30;;;1.40;;
66487;SDS011;53304;54.550;18.526;2024-01-07T08:19:10;7.10;;;1.83;;
66487;SDS011;53304;54.550;18.526;2024-01-07T08:21:36;3.13;;;1.63;;
66487;SDS011;53304;54.550;18.526;2024-01-07T08:24:01;7.90;;;1.60;;
66487;SDS011;53304;54.550;18.526;2024-01-07T08:26:29;3.58;;;1.73;;
66487;SDS011;53304;54.550;18.526;2024-01-07T08:28:54;4.40;;;1.63;;
66487;SDS011;53304;54.550;18.526;2024-01-07T08:31:20;3.20;;;1.60;;
66487;SDS011;53304;54.550;18.526;2024-01-07T08:33:45;3.83;;;1.80;;
66487;SDS011;53304;54.550;18.526;2024-01-07T08:36:10;3.75;;;1.60;;
66487;SDS011;53304;54.550;18.526;2024-01-07T08:38:36;17.65;;;2.67;;
66487;SDS011;53304;54.550;18.526;2024-01-07T08:41:01;6.93;;;2.20;;
66487;SDS011;53304;54.550;18.526;2024-01-07T08:43:27;5.15;;;1.80;;
66487;SDS011;53304;54.550;18.526;2024-01-07T08:45:52;4.68;;;1.73;;
66487;SDS011;53304;54.550;18.526;2024-01-07T08:48:17;5.53;;;2.22;;
66487;SDS011;53304;54.550;18.526;2024-01-07T08:50:43;4.40;;;1.70;;
66487;SDS011;53304;54.550;18.526;2024-01-07T08:53:10;8.75;;;1.95;;
66487;SDS011;53304;54.550;18.526;2024-01-07T08:55:37;4.00;;;1.92;;
66487;SDS011;53304;54.550;18.526;2024-01-07T08:58:05;2.83;;;1.80;;
66487;SDS011;53304;54.550;18.526;2024-01-07T09:00:31;3.78;;;2.00;;
66487;SDS011;53304;54.550;18.526;2024-01-07T09:02:57;3.88;;;2.25;;
66487;SDS011;53304;54.550;18.526;2024-01-07T09:05:24;4.88;;;2.50;;
66487;SDS011;53304;54.550;18.526;2024-01-07T09:07:50;4.05;;;2.30;;
66487;SDS011;53304;54.550;18.526;2024-01-07T09:10:15;3.53;;;2.00;;
66487;SDS011;53304;54.550;18.526;2024-01-07T09:12:41;4.38;;;2.50;;
66487;SDS011;53304;54.550;18.526;2024-01-07T09:15:09;4.90;;;2.38;;
66487;SDS011;53304;54.550;18.526;2024-01-07T09:17:38;4.45;;;2.20;;
66487;SDS011;53304;54.550;18.526;2024-01-07T09:20:04;4.80;;;2.55;;
66487;SDS011;53304;54.550;18.526;2024-01-07T09:22:32;5.63;;;2.50;;
66487;SDS011;53304;54.550;18.526;2024-01-07T09:24:59;4.32;;;2.42;;
66487;SDS011;53304;54.550;18.526;2024-01-07T09:27:25;5.10;;;2.40;;
66487;SDS011;53304;54.550;18.526;2024-01-07T09:29:50;6.75;;;2.83;;
66487;SDS011;53304;54.550;18.526;2024-01-07T09:32:16;4.40;;;2.40;;
66487;SDS011;53304;54.550;18.526;2024-01-07T09:34:44;5.03;;;2.45;;
66487;SDS011;53304;54.550;18.526;2024-01-07T09:37:09;5.40;;;2.63;;
66487;SDS011;53304;54.550;18.526;2024-01-07T09:39:38;4.28;;;2.25;;
66487;SDS011;53304;54.550;18.526;2024-01-07T09:42:05;4.82;;;2.80;;
66487;SDS011;53304;54.550;18.526;2024-01-07T09:44:37;5.07;;;2.83;;
66487;SDS011;53304;54.550;18.526;2024-01-07T09:47:03;4.60;;;2.55;;
66487;SDS011;53304;54.550;18.526;2024-01-07T09:49:29;5.70;;;2.75;;
66487;SDS011;53304;54.550;18.526;2024-01-07T09:51:56;5.70;;;2.97;;
66487;SDS011;53304;54.550;18.526;2024-01-07T09:54:25;4.75;;;2.83;;
66487;SDS011;53304;54.550;18.526;2024-01-07T09:56:52;6.88;;;3.00;;
66487;SDS011;53304;54.550;18.526;2024-01-07T09:59:21;5.75;;;3.05;;
66487;SDS011;53304;54.550;18.526;2024-01-07T10:01:46;4.47;;;2.42;;
66487;SDS011;53304;54.550;18.526;2024-01-07T10:04:12;5.47;;;2.88;;
66487;SDS011;53304;54.550;18.526;2024-01-07T10:06:37;5.32;;;3.13;;
66487;SDS011;53304;54.550;18.526;2024-01-07T10:09:03;5.10;;;2.85;;
66487;SDS011;53304;54.550;18.526;2024-01-07T10:11:28;5.15;;;2.78;;
66487;SDS011;53304;54.550;18.526;2024-01-07T10:13:54;6.72;;;3.10;;
66487;SDS011;53304;54.550;18.526;2024-01-07T10:16:19;5.43;;;3.00;;
66487;SDS011;53304;54.550;18.526;2024-01-07T10:18:45;6.07;;;3.08;;
66487;SDS011;53304;54.550;18.526;2024-01-07T10:21:10;5.22;;;2.90;;
66487;SDS011;53304;54.550;18.526;2024-01-07T10:23:35;4.78;;;2.67;;
66487;SDS011;53304;54.550;18.526;2024-01-07T10:26:01;6.28;;;2.75;;
66487;SDS011;53304;54.550;18.526;2024-01-07T10:28:27;5.82;;;3.10;;
66487;SDS011;53304;54.550;18.526;2024-01-07T10:30:53;6.15;;;2.97;;
66487;SDS011;53304;54.550;18.526;2024-01-07T10:33:18;5.22;;;2.70;;
66487;SDS011;53304;54.550;18.526;2024-01-07T10:35:48;5.95;;;2.92;;
66487;SDS011;53304;54.550;18.526;2024-01-07T10:38:20;5.45;;;3.10;;
66487;SDS011;53304;54.550;18.526;2024-01-07T10:40:50;4.47;;;2.97;;
66487;SDS011;53304;54.550;18.526;2024-01-07T10:43:17;5.38;;;3.00;;
66487;SDS011;53304;54.550;18.526;2024-01-07T10:45:44;6.55;;;3.00;;
66487;SDS011;53304;54.550;18.526;2024-01-07T10:48:13;4.38;;;2.70;;
66487;SDS011;53304;54.550;18.526;2024-01-07T10:50:43;5.78;;;2.92;;
66487;SDS011;53304;54.550;18.526;2024-01-07T10:53:10;8.57;;;3.17;;
66487;SDS011;53304;54.550;18.526;2024-01-07T10:55:39;7.22;;;3.20;;
66487;SDS011;53304;54.550;18.526;2024-01-07T10:58:06;8.15;;;3.65;;
66487;SDS011;53304;54.550;18.526;2024-01-07T11:00:32;6.38;;;4.00;;
66487;SDS011;53304;54.550;18.526;2024-01-07T11:08:25;5.82;;;3.28;;
66487;SDS011;53304;54.550;18.526;2024-01-07T11:11:07;12.35;;;4.05;;
66487;SDS011;53304;54.550;18.526;2024-01-07T11:13:38;7.20;;;3.40;;
66487;SDS011;53304;54.550;18.526;2024-01-07T11:16:04;7.25;;;3.47;;
66487;SDS011;53304;54.550;18.526;2024-01-07T11:18:37;5.80;;;3.30;;
66487;SDS011;53304;54.550;18.526;2024-01-07T11:21:04;6.43;;;3.42;;
66487;SDS011;53304;54.550;18.526;2024-01-07T11:23:37;5.78;;;3.20;;
66487;SDS011;53304;54.550;18.526;2024-01-07T11:26:08;5.93;;;3.13;;
66487;SDS011;53304;54.550;18.526;2024-01-07T11:31:08;12.80;;;3.80;;
66487;SDS011;53304;54.550;18.526;2024-01-07T11:33:41;9.63;;;4.25;;
66487;SDS011;53304;54.550;18.526;2024-01-07T11:36:07;9.50;;;3.80;;
66487;SDS011;53304;54.550;18.526;2024-01-07T11:38:36;6.65;;;3.38;;
66487;SDS011;53304;54.550;18.526;2024-01-07T11:41:04;6.78;;;3.58;;
66487;SDS011;53304;54.550;18.526;2024-01-07T11:43:33;6.50;;;3.35;;
66487;SDS011;53304;54.550;18.526;2024-01-07T11:45:59;5.72;;;2.88;;
66487;SDS011;53304;54.550;18.526;2024-01-07T11:48:25;5.97;;;3.08;;
66487;SDS011;53304;54.550;18.526;2024-01-07T11:50:50;6.55;;;3.40;;
66487;SDS011;53304;54.550;18.526;2024-01-07T11:53:16;6.63;;;3.50;;
66487;SDS011;53304;54.550;18.526;2024-01-07T11:55:41;6.28;;;3.30;;
66487;SDS011;53304;54.550;18.526;2024-01-07T11:58:07;8.70;;;3.40;;
66487;SDS011;53304;54.550;18.526;2024-01-07T12:03:08;5.82;;;3.38;;
66487;SDS011;53304;54.550;18.526;2024-01-07T12:05:33;6.32;;;3.30;;
66487;SDS011;53304;54.550;18.526;2024-01-07T12:08:00;5.32;;;3.00;;
66487;SDS011;53304;54.550;18.526;2024-01-07T12:10:25;7.07;;;3.55;;
66487;SDS011;53304;54.550;18.526;2024-01-07T12:12:53;5.28;;;3.08;;
66487;SDS011;53304;54.550;18.526;2024-01-07T12:15:19;7.82;;;3.47;;
66487;SDS011;53304;54.550;18.526;2024-01-07T12:17:55;6.10;;;3.40;;
66487;SDS011;53304;54.550;18.526;2024-01-07T12:20:22;6.78;;;3.50;;
66487;SDS011;53304;54.550;18.526;2024-01-07T12:22:49;6.30;;;3.22;;
66487;SDS011;53304;54.550;18.526;2024-01-07T12:25:21;7.43;;;3.65;;
66487;SDS011;53304;54.550;18.526;2024-01-07T12:27:48;6.10;;;3.30;;
66487;SDS011;53304;54.550;18.526;2024-01-07T12:30:17;7.00;;;3.50;;
66487;SDS011;53304;54.550;18.526;2024-01-07T12:32:43;5.25;;;3.10;;
66487;SDS011;53304;54.550;18.526;2024-01-07T12:35:10;7.55;;;4.30;;
66487;SDS011;53304;54.550;18.526;2024-01-07T12:37:36;7.07;;;3.53;;
66487;SDS011;53304;54.550;18.526;2024-01-07T12:40:02;6.05;;;3.30;;
66487;SDS011;53304;54.550;18.526;2024-01-07T12:42:28;6.13;;;3.15;;
66487;SDS011;53304;54.550;18.526;2024-01-07T12:44:53;5.85;;;3.15;;
66487;SDS011;53304;54.550;18.526;2024-01-07T12:47:21;6.05;;;3.50;;
66487;SDS011;53304;54.550;18.526;2024-01-07T12:49:47;5.90;;;3.38;;
66487;SDS011;53304;54.550;18.526;2024-01-07T12:52:12;5.88;;;3.45;;
66487;SDS011;53304;54.550;18.526;2024-01-07T12:54:40;6.30;;;3.60;;
66487;SDS011;53304;54.550;18.526;2024-01-07T12:57:05;7.28;;;3.58;;
66487;SDS011;53304;54.550;18.526;2024-01-07T12:59:31;6.22;;;3.67;;
66487;SDS011;53304;54.550;18.526;2024-01-07T13:01:56;6.35;;;3.35;;
66487;SDS011;53304;54.550;18.526;2024-01-07T13:04:22;6.57;;;3.33;;
66487;SDS011;53304;54.550;18.526;2024-01-07T13:06:47;5.93;;;3.28;;
66487;SDS011;53304;54.550;18.526;2024-01-07T13:09:13;7.30;;;3.63;;
66487;SDS011;53304;54.550;18.526;2024-01-07T13:11:38;6.35;;;3.38;;
66487;SDS011;53304;54.550;18.526;2024-01-07T13:14:04;5.25;;;3.28;;
66487;SDS011;53304;54.550;18.526;2024-01-07T13:16:29;6.15;;;3.47;;
66487;SDS011;53304;54.550;18.526;2024-01-07T13:18:55;6.60;;;3.63;;
66487;SDS011;53304;54.550;18.526;2024-01-07T13:21:21;5.03;;;3.15;;
66487;SDS011;53304;54.550;18.526;2024-01-07T13:23:46;7.20;;;3.30;;
66487;SDS011;53304;54.550;18.526;2024-01-07T13:26:15;7.50;;;3.53;;
66487;SDS011;53304;54.550;18.526;2024-01-07T13:28:41;6.97;;;3.60;;
66487;SDS011;53304;54.550;18.526;2024-01-07T13:31:07;6.25;;;3.33;;
66487;SDS011;53304;54.550;18.526;2024-01-07T13:33:33;6.68;;;3.65;;
66487;SDS011;53304;54.550;18.526;2024-01-07T13:36:01;5.20;;;3.30;;
66487;SDS011;53304;54.550;18.526;2024-01-07T13:38:28;6.35;;;3.38;;
66487;SDS011;53304;54.550;18.526;2024-01-07T13:40:56;6.70;;;3.30;;
66487;SDS011;53304;54.550;18.526;2024-01-07T13:43:21;5.68;;;3.00;;
66487;SDS011;53304;54.550;18.526;2024-01-07T13:45:48;6.38;;;3.40;;
66487;SDS011;53304;54.550;18.526;2024-01-07T13:48:14;6.10;;;3.42;;
66487;SDS011;53304;54.550;18.526;2024-01-07T13:50:39;6.32;;;3.22;;
66487;SDS011;53304;54.550;18.526;2024-01-07T13:53:05;6.68;;;3.42;;
66487;SDS011;53304;54.550;18.526;2024-01-07T13:55:33;6.63;;;3.53;;
66487;SDS011;53304;54.550;18.526;2024-01-07T13:57:58;5.80;;;3.20;;
66487;SDS011;53304;54.550;18.526;2024-01-07T14:00:24;8.30;;;3.38;;
66487;SDS011;53304;54.550;18.526;2024-01-07T14:02:49;5.20;;;3.40;;
66487;SDS011;53304;54.550;18.526;2024-01-07T14:05:15;6.32;;;3.20;;
66487;SDS011;53304;54.550;18.526;2024-01-07T14:07:40;6.15;;;3.35;;
66487;SDS011;53304;54.550;18.526;2024-01-07T14:10:06;6.57;;;3.47;;
66487;SDS011;53304;54.550;18.526;2024-01-07T14:12:33;8.05;;;3.80;;
66487;SDS011;53304;54.550;18.526;2024-01-07T14:15:01;5.82;;;3.33;;
66487;SDS011;53304;54.550;18.526;2024-01-07T14:17:28;7.43;;;3.88;;
66487;SDS011;53304;54.550;18.526;2024-01-07T14:19:53;6.65;;;3.50;;
66487;SDS011;53304;54.550;18.526;2024-01-07T14:22:23;6.60;;;4.00;;
66487;SDS011;53304;54.550;18.526;2024-01-07T14:24:49;7.10;;;3.97;;
66487;SDS011;53304;54.550;18.526;2024-01-07T14:27:15;7.45;;;3.92;;
66487;SDS011;53304;54.550;18.526;2024-01-07T14:29:41;6.90;;;3.72;;
66487;SDS011;53304;54.550;18.526;2024-01-07T14:32:07;6.35;;;3.55;;
66487;SDS011;53304;54.550;18.526;2024-01-07T14:34:32;6.68;;;3.65;;
66487;SDS011;53304;54.550;18.526;2024-01-07T14:37:00;7.95;;;3.72;;
66487;SDS011;53304;54.550;18.526;2024-01-07T14:39:28;8.02;;;4.03;;